Time;durP1;ratioP1;P1;durP2;ratioP2;P2;SDS_P1;SDS_P2;PMS_P1;PMS_P2;Temp;Humidity;BMP_temperature;BMP_pressure;BME280_temperature;BME280_humidity;BME280_pressure;Samples;Min_cycle;Max_cycle;Signal;HPM_P1;HPM_P2
2023/05/04 00:00:26;;;;;;;0.50;0.50;;;;;;;10.25;66.41;97347.56;29394;345;64013;-59
2023/05/04 00:00:58;;;;;;;0.50;0.50;;;;;;;10.23;66.52;97347.84;29395;287;63004;-60
2023/05/04 00:01:29;;;;;;;0.50;0.50;;;;;;;10.21;66.49;97346.50;29395;334;63009;-60
2023/05/04 00:02:00;;;;;;;0.50;0.50;;;;;;;10.20;66.54;97348.41;29395;203;63005;-60
2023/05/04 00:02:33;;;;;;;0.50;0.50;;;;;;;10.19;66.95;97351.34;29395;251;63009;-60
2023/05/04 00:03:07;;;;;;;0.50;0.50;;;;;;;10.15;67.28;97348.37;29395;243;63008;-60
2023/05/04 00:03:39;;;;;;;0.50;0.50;;;;;;;10.12;66.84;97343.50;29395;292;63009;-61
2023/05/04 00:04:10;;;;;;;0.50;0.50;;;;;;;10.11;66.80;97339.19;29394;199;64005;-60
2023/05/04 00:04:41;;;;;;;0.50;0.50;;;;;;;10.09;65.98;97336.75;29395;256;63009;-61
2023/05/04 00:05:13;;;;;;;0.50;0.50;;;;;;;10.08;66.18;97345.16;29394;197;64009;-60
2023/05/04 00:05:44;;;;;;;0.50;0.50;;;;;;;10.08;66.16;97337.03;29394;294;64013;-60
2023/05/04 00:06:15;;;;;;;0.50;0.50;;;;;;;10.06;66.45;97342.72;29395;211;63004;-60
2023/05/04 00:06:48;;;;;;;0.50;0.50;;;;;;;10.04;67.42;97344.94;29395;227;63009;-60
2023/05/04 00:07:19;;;;;;;0.50;0.50;;;;;;;10.03;67.98;97343.31;29395;260;63008;-60
2023/05/04 00:07:51;;;;;;;0.50;0.50;;;;;;;10.01;67.83;97342.78;29395;278;63009;-60
2023/05/04 00:08:23;;;;;;;0.50;0.50;;;;;;;9.99;67.86;97336.81;29395;293;63004;-61
2023/05/04 00:08:55;;;;;;;0.50;0.50;;;;;;;9.98;66.92;97340.63;29395;491;63009;-60
2023/05/04 00:09:26;;;;;;;0.50;0.50;;;;;;;9.99;67.07;97334.09;29395;245;63005;-60
2023/05/04 00:09:58;;;;;;;0.40;0.40;;;;;;;10.00;66.69;97333.03;29395;486;63025;-60
2023/05/04 00:10:30;;;;;;;0.50;0.50;;;;;;;10.01;66.43;97334.63;29394;413;64009;-59
2023/05/04 00:11:01;;;;;;;0.50;0.50;;;;;;;10.01;65.97;97323.78;29395;202;63009;-57
2023/05/04 00:11:33;;;;;;;0.50;0.50;;;;;;;10.04;66.12;97323.25;29394;246;64009;-60
2023/05/04 00:12:05;;;;;;;0.50;0.50;;;;;;;10.05;66.53;97332.97;29395;207;63009;-61
2023/05/04 00:12:38;;;;;;;0.50;0.50;;;;;;;10.04;66.59;97331.38;29395;414;63005;-60
2023/05/04 00:13:13;;;;;;;0.50;0.50;;;;;;;10.04;65.91;97323.25;29395;309;63009;-59
2023/05/04 00:13:44;;;;;;;0.50;0.50;;;;;;;10.06;65.95;97325.66;29395;438;63004;-59
2023/05/04 00:14:16;;;;;;;0.50;0.50;;;;;;;10.08;65.55;97320.75;29395;397;63009;-59
2023/05/04 00:14:48;;;;;;;0.50;0.50;;;;;;;10.08;65.35;97318.84;29395;206;63004;-59
2023/05/04 00:15:22;;;;;;;0.50;0.50;;;;;;;10.10;64.88;97313.16;29395;196;63019;-59
2023/05/04 00:15:53;;;;;;;0.50;0.50;;;;;;;10.14;64.39;97321.53;29395;202;63004;-60
2023/05/04 00:16:25;;;;;;;0.50;0.50;;;;;;;10.16;64.03;97313.94;29395;360;63009;-60
2023/05/04 00:16:56;;;;;;;0.50;0.50;;;;;;;10.18;63.91;97311.75;29394;295;64009;-60
2023/05/04 00:17:27;;;;;;;0.50;0.50;;;;;;;10.19;63.74;97316.09;29395;263;63005;-59
2023/05/04 00:17:58;;;;;;;0.50;0.50;;;;;;;10.21;63.79;97317.47;29395;302;63005;-58
2023/05/04 00:18:29;;;;;;;0.50;0.50;;;;;;;10.23;63.91;97315.28;29395;295;63009;-60
2023/05/04 00:19:01;;;;;;;0.50;0.50;;;;;;;10.24;63.87;97321.53;29395;215;63005;-60
2023/05/04 00:19:38;;;;;;;0.50;0.50;;;;;;;10.23;63.83;97309.06;29395;492;63016;-59
2023/05/04 00:20:12;;;;;;;0.50;0.50;;;;;;;10.23;64.04;97314.47;29395;310;63005;-59
2023/05/04 00:20:43;;;;;;;0.50;0.50;;;;;;;10.23;63.81;97312.59;29395;218;63009;-59
2023/05/04 00:21:17;;;;;;;0.50;0.50;;;;;;;10.25;64.08;97312.31;29396;264;63003;-60
2023/05/04 00:21:48;;;;;;;0.50;0.50;;;;;;;10.26;64.11;97308.50;29395;231;63009;-60
2023/05/04 00:22:20;;;;;;;0.50;0.50;;;;;;;10.29;63.93;97313.38;29395;307;64009;-66
2023/05/04 00:22:51;;;;;;;0.40;0.40;;;;;;;10.33;63.49;97314.44;29396;233;63009;-56
2023/05/04 00:23:22;;;;;;;0.50;0.50;;;;;;;10.35;63.02;97306.81;29396;274;63004;-60
2023/05/04 00:23:54;;;;;;;0.50;0.50;;;;;;;10.37;62.86;97316.31;29396;225;63009;-61
2023/05/04 00:24:26;;;;;;;0.50;0.50;;;;;;;10.41;62.83;97308.38;29396;210;63005;-60
2023/05/04 00:24:57;;;;;;;0.50;0.50;;;;;;;10.41;62.71;97311.91;29396;203;63024;-60
2023/05/04 00:25:30;;;;;;;0.50;0.50;;;;;;;10.41;62.70;97305.69;29396;286;63005;-59
2023/05/04 00:26:02;;;;;;;0.45;0.45;;;;;;;10.41;62.58;97305.69;29395;229;64013;-60
2023/05/04 00:26:37;;;;;;;0.50;0.50;;;;;;;10.42;62.72;97310.00;29396;257;63005;-62
2023/05/04 00:27:10;;;;;;;0.50;0.50;;;;;;;10.44;62.52;97301.59;29396;225;63009;-58
2023/05/04 00:27:41;;;;;;;0.40;0.40;;;;;;;10.48;62.84;97313.50;29396;234;63005;-60
2023/05/04 00:28:13;;;;;;;0.50;0.50;;;;;;;10.48;62.55;97306.19;29396;392;63009;-59
2023/05/04 00:28:46;;;;;;;0.50;0.50;;;;;;;10.51;63.14;97302.91;29396;251;63004;-61
2023/05/04 00:29:18;;;;;;;0.50;0.50;;;;;;;10.52;62.67;97311.84;29396;242;63018;-59
2023/05/04 00:29:49;;;;;;;0.50;0.50;;;;;;;10.53;62.93;97305.34;29396;313;63004;-60
2023/05/04 00:30:21;;;;;;;0.50;0.50;;;;;;;10.53;62.54;97298.00;29396;256;63009;-60
2023/05/04 00:30:53;;;;;;;0.50;0.50;;;;;;;10.53;62.73;97291.75;29395;241;64004;-60
2023/05/04 00:31:25;;;;;;;0.50;0.50;;;;;;;10.52;62.67;97299.09;29395;280;64014;-61
2023/05/04 00:31:56;;;;;;;0.50;0.50;;;;;;;10.52;62.59;97299.09;29396;222;63005;-60
2023/05/04 00:32:28;;;;;;;0.50;0.50;;;;;;;10.53;62.36;97298.00;29396;202;63009;-59
2023/05/04 00:32:59;;;;;;;0.50;0.50;;;;;;;10.53;62.58;97298.00;29395;203;64009;-60
2023/05/04 00:33:32;;;;;;;0.50;0.50;;;;;;;10.51;63.29;97300.19;29395;199;64013;-60
2023/05/04 00:34:03;;;;;;;0.50;0.50;;;;;;;10.49;63.74;97305.09;29396;198;63005;-59
2023/05/04 00:34:35;;;;;;;0.50;0.50;;;;;;;10.47;63.06;97296.41;29396;202;63009;-60
2023/05/04 00:35:07;;;;;;;0.50;0.50;;;;;;;10.47;63.22;97296.41;29396;196;63004;-59
2023/05/04 00:35:40;;;;;;;0.50;0.50;;;;;;;10.47;63.16;97306.47;29396;240;63022;-60
2023/05/04 00:36:12;;;;;;;0.50;0.50;;;;;;;10.45;63.28;97293.16;29396;220;63004;-60
2023/05/04 00:36:45;;;;;;;0.50;0.50;;;;;;;10.45;62.86;97301.31;29396;248;63009;-60
2023/05/04 00:37:16;;;;;;;0.50;0.50;;;;;;;10.46;62.89;97300.22;29396;248;63004;-60
2023/05/04 00:37:47;;;;;;;0.50;0.50;;;;;;;10.46;63.06;97300.22;29396;246;63008;-59
2023/05/04 00:38:19;;;;;;;0.50;0.50;;;;;;;10.48;63.13;97289.91;29395;271;64008;-60
2023/05/04 00:38:53;;;;;;;0.50;0.50;;;;;;;10.49;63.07;97293.41;29396;229;63008;-59
2023/05/04 00:39:25;;;;;;;0.50;0.50;;;;;;;10.49;63.28;97288.81;29396;224;63005;-61
2023/05/04 00:39:57;;;;;;;0.50;0.50;;;;;;;10.51;62.88;97288.53;29396;234;63009;-57
2023/05/04 00:40:29;;;;;;;0.50;0.50;;;;;;;10.50;63.25;97293.13;29395;202;64009;-59
2023/05/04 00:41:00;;;;;;;0.50;0.50;;;;;;;10.49;63.29;97294.22;29396;351;63009;-60
2023/05/04 00:41:32;;;;;;;0.40;0.40;;;;;;;10.46;63.77;97300.22;29396;457;63005;-59
2023/05/04 00:42:03;;;;;;;0.50;0.50;;;;;;;10.45;64.24;97301.31;29396;198;63009;-60
2023/05/04 00:42:35;;;;;;;0.50;0.50;;;;;;;10.43;64.41;97289.94;29396;413;63004;-61
2023/05/04 00:43:06;;;;;;;0.50;0.50;;;;;;;10.42;63.70;97296.44;29396;293;63008;-60
2023/05/04 00:43:37;;;;;;;0.50;0.50;;;;;;;10.41;64.17;97292.91;29396;215;63004;-60
2023/05/04 00:44:09;;;;;;;0.50;0.50;;;;;;;10.42;63.67;97285.59;29396;224;63009;-56
2023/05/04 00:44:41;;;;;;;0.50;0.50;;;;;;;10.42;64.28;97280.16;29396;255;63004;-61
2023/05/04 00:45:13;;;;;;;0.50;0.50;;;;;;;10.41;63.87;97294.81;29396;209;63008;-60
2023/05/04 00:45:46;;;;;;;0.50;0.50;;;;;;;10.41;63.93;97284.78;29395;231;64009;-60
2023/05/04 00:46:22;;;;;;;0.43;0.43;;;;;;;10.45;63.91;97289.66;29396;478;63009;-60
2023/05/04 00:46:53;;;;;;;0.50;0.50;;;;;;;10.45;64.08;97285.03;29396;412;63005;-60
2023/05/04 00:47:25;;;;;;;0.50;0.50;;;;;;;10.52;63.79;97284.72;29396;273;63009;-59
2023/05/04 00:47:57;;;;;;;0.50;0.50;;;;;;;10.51;64.41;97283.91;29396;244;63005;-60
2023/05/04 00:48:31;;;;;;;0.50;0.50;;;;;;;10.51;64.16;97283.91;29396;252;63009;-60
2023/05/04 00:49:03;;;;;;;0.50;0.50;;;;;;;10.49;64.81;97285.28;29396;398;63005;-60
2023/05/04 00:49:35;;;;;;;0.50;0.50;;;;;;;10.46;64.09;97283.94;29395;206;64009;-57
2023/05/04 00:50:08;;;;;;;0.50;0.50;;;;;;;10.45;64.76;97289.66;29396;345;63004;-67
2023/05/04 00:50:40;;;;;;;0.50;0.50;;;;;;;10.45;64.30;97293.16;29396;371;63009;-59
2023/05/04 00:51:14;;;;;;;0.50;0.50;;;;;;;10.46;64.19;97281.22;29395;307;64009;-61
2023/05/04 00:51:46;;;;;;;0.50;0.50;;;;;;;10.47;64.30;97282.84;29396;219;63009;-61
2023/05/04 00:52:19;;;;;;;0.43;0.43;;;;;;;10.49;64.59;97288.81;29396;202;63004;-58
2023/05/04 00:52:54;;;;;;;0.50;0.50;;;;;;;10.49;64.33;97280.66;29396;470;63008;-60
2023/05/04 00:53:25;;;;;;;0.50;0.50;;;;;;;10.50;64.18;97282.28;29396;236;63005;-60
2023/05/04 00:53:57;;;;;;;0.50;0.50;;;;;;;10.49;64.62;97275.25;29396;315;63009;-59
2023/05/04 00:54:30;;;;;;;0.50;0.50;;;;;;;10.47;64.47;97282.84;29395;233;64005;-59
2023/05/04 00:55:02;;;;;;;0.47;0.47;;;;;;;10.49;64.55;97286.09;29395;368;64013;-57
2023/05/04 00:55:37;;;;;;;0.50;0.50;;;;;;;10.46;65.62;97289.38;29396;265;63005;-60
2023/05/04 00:56:10;;;;;;;0.50;0.50;;;;;;;10.46;64.90;97285.84;29396;199;63009;-60
2023/05/04 00:56:45;;;;;;;0.50;0.50;;;;;;;10.46;65.23;97285.84;29396;252;63005;-61
2023/05/04 00:57:16;;;;;;;0.50;0.50;;;;;;;10.47;65.13;97288.28;29396;290;63009;-60
2023/05/04 00:57:49;;;;;;;0.50;0.50;;;;;;;10.50;65.33;97282.28;29396;208;63004;-61
2023/05/04 00:58:23;;;;;;;0.50;0.50;;;;;;;10.52;64.92;97288.25;29396;238;63009;-60
2023/05/04 00:58:58;;;;;;;0.50;0.50;;;;;;;10.54;65.28;97294.19;29396;236;63004;-59
2023/05/04 00:59:29;;;;;;;0.50;0.50;;;;;;;10.53;64.92;97287.16;29396;296;63009;-60
2023/05/04 01:00:00;;;;;;;0.50;0.50;;;;;;;10.52;65.66;97287.44;29396;249;63015;-58
2023/05/04 01:00:33;;;;;;;0.50;0.50;;;;;;;10.50;65.31;97281.47;29395;255;64013;-60
2023/05/04 01:01:05;;;;;;;0.50;0.50;;;;;;;10.50;65.52;97287.72;29396;200;63010;-60
2023/05/04 01:01:37;;;;;;;0.50;0.50;;;;;;;10.51;65.59;97283.09;29396;272;63009;-60
2023/05/04 01:02:08;;;;;;;0.50;0.50;;;;;;;10.50;65.37;97282.28;29396;376;63005;-61
2023/05/04 01:02:40;;;;;;;0.50;0.50;;;;;;;10.52;65.12;97290.16;29395;222;64013;-61
2023/05/04 01:03:12;;;;;;;0.50;0.50;;;;;;;10.50;65.96;97290.44;29396;199;63005;-59
2023/05/04 01:03:46;;;;;;;0.50;0.50;;;;;;;10.48;65.78;97284.47;29396;290;63009;-57
2023/05/04 01:04:18;;;;;;;0.50;0.50;;;;;;;10.50;65.86;97292.34;29396;249;63005;-61
2023/05/04 01:04:50;;;;;;;0.50;0.50;;;;;;;10.52;65.74;97285.53;29397;229;63009;-59
2023/05/04 01:05:23;;;;;;;0.50;0.50;;;;;;;10.51;66.17;97289.34;29397;204;63004;-61
2023/05/04 01:06:18;;;;;;;0.50;0.50;;;;;;;10.49;65.95;97288.00;29397;198;63014;-60
2023/05/04 01:07:28;;;;;;;0.47;0.47;;;;;;;10.46;66.37;97291.28;29397;349;63004;-60
2023/05/04 01:08:17;;;;;;;0.50;0.50;;;;;;;10.42;67.12;97301.88;29396;260;64013;-60
2023/05/04 01:09:49;;;;;;;0.50;0.50;;;;;;;10.41;66.99;97302.97;29397;248;63014;-56
2023/05/04 01:10:38;;;;;;;0.50;0.50;;;;;;;10.40;66.58;97301.34;29397;277;63017;-61
2023/05/04 01:11:14;;;;;;;0.50;0.50;;;;;;;10.41;66.32;97294.81;29397;270;63005;-60
2023/05/04 01:11:57;;;;;;;0.50;0.50;;;;;;;10.43;66.33;97289.94;29397;368;63009;-60
2023/05/04 01:12:41;;;;;;;0.50;0.50;;;;;;;10.45;66.99;97298.59;29397;224;63007;-60
2023/05/04 01:13:17;;;;;;;0.50;0.50;;;;;;;10.47;66.53;97295.59;29396;219;64013;-62
2023/05/04 01:13:50;;;;;;;0.50;0.50;;;;;;;10.47;66.57;97293.69;29397;264;63004;-60
2023/05/04 01:14:22;;;;;;;0.50;0.50;;;;;;;10.47;66.46;97290.19;29397;233;63009;-61
2023/05/04 01:14:56;;;;;;;0.50;0.50;;;;;;;10.47;66.50;97292.88;29397;197;63004;-60
2023/05/04 01:15:29;;;;;;;0.50;0.50;;;;;;;10.46;66.07;97292.09;29397;215;63008;-60
2023/05/04 01:16:04;;;;;;;0.50;0.50;;;;;;;10.46;66.56;97296.69;29397;240;63005;-60
2023/05/04 01:16:35;;;;;;;0.50;0.50;;;;;;;10.44;66.43;97299.69;29397;412;63024;-60
2023/05/04 01:17:07;;;;;;;0.40;0.40;;;;;;;10.44;66.81;97298.88;29396;367;63005;-60
2023/05/04 01:17:39;;;;;;;0.40;0.40;;;;;;;10.43;67.18;97300.78;29395;268;64013;-61
2023/05/04 01:18:10;;;;;;;0.50;0.50;;;;;;;10.44;67.09;97305.13;29397;337;63005;-61
2023/05/04 01:18:41;;;;;;;0.50;0.50;;;;;;;10.45;67.05;97301.31;29396;413;63009;-61
2023/05/04 01:19:12;;;;;;;0.40;0.40;;;;;;;10.46;66.80;97300.22;29396;392;63005;-59
2023/05/04 01:19:44;;;;;;;0.50;0.50;;;;;;;10.46;67.22;97302.94;29396;246;63009;-60
2023/05/04 01:20:15;;;;;;;0.50;0.50;;;;;;;10.45;67.98;97305.94;29396;234;63004;-59
2023/05/04 01:20:47;;;;;;;0.50;0.50;;;;;;;10.43;68.21;97311.63;29396;196;63009;-61
2023/05/04 01:21:20;;;;;;;0.50;0.50;;;;;;;10.41;67.85;97305.69;29396;204;63004;-61
2023/05/04 01:21:51;;;;;;;0.50;0.50;;;;;;;10.41;67.33;97303.78;29396;429;63009;-56
2023/05/04 01:22:24;;;;;;;0.50;0.50;;;;;;;10.42;67.51;97307.28;29396;230;63004;-60
2023/05/04 01:22:56;;;;;;;0.50;0.50;;;;;;;10.42;67.26;97307.28;29395;250;64013;-60
2023/05/04 01:23:27;;;;;;;0.40;0.40;;;;;;;10.41;67.33;97301.06;29396;278;63005;-62
2023/05/04 01:23:58;;;;;;;0.50;0.50;;;;;;;10.41;68.06;97305.69;29396;197;63009;-60
2023/05/04 01:24:30;;;;;;;0.50;0.50;;;;;;;10.40;67.88;97309.47;29396;206;63005;-60
2023/05/04 01:25:02;;;;;;;0.50;0.50;;;;;;;10.38;67.81;97312.50;29396;359;63005;-60
2023/05/04 01:25:51;;;;;;;0.50;0.50;;;;;;;10.37;68.92;97310.87;29396;241;63005;-59
2023/05/04 01:26:33;;;;;;;0.50;0.50;;;;;;;10.33;68.32;97312.53;29396;218;63009;-69
2023/05/04 01:27:45;;;;;;;0.50;0.50;;;;;;;10.37;68.05;97307.34;29396;226;63005;-65
2023/05/04 01:28:22;;;;;;;0.50;0.50;;;;;;;10.39;68.01;97308.69;29417;222;64013;-60
2023/05/04 01:29:13;;;;;;;0.50;0.50;;;;;;;10.40;67.93;97309.47;29396;213;63004;-61
2023/05/04 01:30:24;;;;;;;0.50;0.50;;;;;;;10.39;67.71;97303.28;29396;242;63009;-60
2023/05/04 01:30:59;;;;;;;0.50;0.50;;;;;;;10.40;68.46;97312.19;29396;206;63005;-60
2023/05/04 01:31:34;;;;;;;0.50;0.50;;;;;;;10.37;68.58;97299.22;29396;215;63009;-60
2023/05/04 01:32:07;;;;;;;0.50;0.50;;;;;;;10.34;69.20;97310.63;29396;255;63005;-59
2023/05/04 01:32:40;;;;;;;0.50;0.50;;;;;;;10.32;68.92;97312.81;29396;202;63009;-60
2023/05/04 01:33:13;;;;;;;0.40;0.40;;;;;;;10.30;68.98;97304.13;29395;206;64009;-60
2023/05/04 01:33:45;;;;;;;0.50;0.50;;;;;;;10.29;69.93;97316.09;29396;218;63005;-60
2023/05/04 01:34:17;;;;;;;0.50;0.50;;;;;;;10.27;69.05;97305.50;29396;203;63005;-63
2023/05/04 01:34:48;;;;;;;0.50;0.50;;;;;;;10.29;69.04;97302.53;29396;243;63026;-60
2023/05/04 01:35:19;;;;;;;0.50;0.50;;;;;;;10.29;69.39;97303.31;29396;203;63004;-60
2023/05/04 01:35:51;;;;;;;0.50;0.50;;;;;;;10.29;68.60;97300.63;29396;276;63009;-59
2023/05/04 01:36:24;;;;;;;0.50;0.50;;;;;;;10.29;68.88;97302.53;29396;268;63004;-60
2023/05/04 01:36:56;;;;;;;0.47;0.47;;;;;;;10.32;68.95;97299.25;29396;250;63015;-59
2023/05/04 01:37:28;;;;;;;0.50;0.50;;;;;;;10.32;69.29;97297.34;29396;293;63004;-61
2023/05/04 01:38:00;;;;;;;0.50;0.50;;;;;;;10.32;69.43;97302.78;29396;253;63023;-60
2023/05/04 01:38:32;;;;;;;0.50;0.50;;;;;;;10.30;69.17;97301.44;29395;229;64009;-60
2023/05/04 01:39:04;;;;;;;0.50;0.50;;;;;;;10.29;69.04;97297.09;29396;226;63009;-59
2023/05/04 01:39:36;;;;;;;0.50;0.50;;;;;;;10.27;69.25;97294.66;29396;200;63005;-58
2023/05/04 01:40:09;;;;;;;0.50;0.50;;;;;;;10.25;69.40;97302.25;29396;197;63009;-61
2023/05/04 01:40:40;;;;;;;0.50;0.50;;;;;;;10.25;68.96;97298.75;29396;231;63005;-60
2023/05/04 01:41:11;;;;;;;0.50;0.50;;;;;;;10.24;69.45;97297.13;29396;213;63009;-59
2023/05/04 01:41:42;;;;;;;0.50;0.50;;;;;;;10.24;69.61;97297.13;29396;251;63005;-59
2023/05/04 01:42:14;;;;;;;0.50;0.50;;;;;;;10.22;69.41;97300.12;29396;263;63009;-59
2023/05/04 01:42:46;;;;;;;0.50;0.50;;;;;;;10.23;69.04;97298.22;29396;274;63004;-60
2023/05/04 01:43:17;;;;;;;0.50;0.50;;;;;;;10.23;69.45;97292.78;29396;263;63022;-60
2023/05/04 01:43:49;;;;;;;0.50;0.50;;;;;;;10.21;69.90;97294.97;29395;202;64009;-57
2023/05/04 01:44:20;;;;;;;0.50;0.50;;;;;;;10.21;69.21;97294.97;29396;324;63009;-60
2023/05/04 01:44:51;;;;;;;0.50;0.50;;;;;;;10.20;69.00;97288.72;29396;276;63004;-60
2023/05/04 01:45:23;;;;;;;0.50;0.50;;;;;;;10.22;69.18;97302.00;29396;357;63008;-59
2023/05/04 01:45:54;;;;;;;0.43;0.43;;;;;;;10.22;69.27;97293.88;29396;202;63004;-59
2023/05/04 01:46:25;;;;;;;0.50;0.50;;;;;;;10.21;69.46;97294.97;29396;203;63009;-60
2023/05/04 01:46:56;;;;;;;0.50;0.50;;;;;;;10.21;69.23;97300.38;29396;230;63005;-59
2023/05/04 01:47:28;;;;;;;0.40;0.40;;;;;;;10.19;70.06;97302.53;29396;249;63009;-59
2023/05/04 01:48:03;;;;;;;0.50;0.50;;;;;;;10.18;70.31;97296.31;29396;264;63005;-59
2023/05/04 01:48:34;;;;;;;0.50;0.50;;;;;;;10.18;70.00;97295.50;29396;203;63009;-59
2023/05/04 01:49:06;;;;;;;0.50;0.50;;;;;;;10.17;69.77;97293.88;29395;240;64009;-60
2023/05/04 01:49:38;;;;;;;0.50;0.50;;;;;;;10.16;70.78;97297.66;29396;254;63004;-59
2023/05/04 01:50:10;;;;;;;0.50;0.50;;;;;;;10.14;71.64;97299.84;29396;274;63004;-60
2023/05/04 01:50:41;;;;;;;0.50;0.50;;;;;;;10.11;71.65;97295.78;29396;251;63009;-60
2023/05/04 01:51:12;;;;;;;0.50;0.50;;;;;;;10.08;71.31;97296.34;29396;205;63004;-58
2023/05/04 01:51:48;;;;;;;0.50;0.50;;;;;;;10.07;71.22;97292.84;29396;214;63016;-59
2023/05/04 01:52:19;;;;;;;0.50;0.50;;;;;;;10.05;71.00;97292.31;29395;202;64008;-59
2023/05/04 01:52:50;;;;;;;0.50;0.50;;;;;;;10.05;71.00;97296.91;29395;237;64014;-60
2023/05/04 01:53:21;;;;;;;0.50;0.50;;;;;;;10.04;70.76;97295.31;29396;219;63005;-60
2023/05/04 01:53:53;;;;;;;0.50;0.50;;;;;;;10.01;71.29;97291.25;29396;243;63009;-60
2023/05/04 01:54:24;;;;;;;0.50;0.50;;;;;;;10.00;71.23;97295.06;29396;368;63000;-60
2023/05/04 01:54:55;;;;;;;0.70;0.70;;;;;;;9.99;70.89;97293.44;29396;271;63009;-59
2023/05/04 01:55:26;;;;;;;0.50;0.50;;;;;;;9.99;70.91;97293.44;29396;257;63005;-60
2023/05/04 01:55:58;;;;;;;0.50;0.50;;;;;;;10.00;70.91;97294.25;29396;537;63009;-59
2023/05/04 01:56:29;;;;;;;0.50;0.50;;;;;;;9.99;70.67;97293.44;29396;212;63005;-60
2023/05/04 01:57:01;;;;;;;0.50;0.50;;;;;;;9.98;71.05;97299.12;29396;213;63009;-60
2023/05/04 01:57:32;;;;;;;0.50;0.50;;;;;;;9.96;71.76;97288.56;29396;247;63004;-59
2023/05/04 01:58:03;;;;;;;0.50;0.50;;;;;;;9.94;71.79;97298.88;29395;380;64013;-60
2023/05/04 01:58:35;;;;;;;0.50;0.50;;;;;;;9.92;71.95;97295.63;29396;245;63004;-59
2023/05/04 01:59:06;;;;;;;0.50;0.50;;;;;;;9.91;71.43;97295.91;29396;197;63013;-60
2023/05/04 01:59:37;;;;;;;0.50;0.50;;;;;;;9.90;71.74;97297.81;29396;269;63004;-60
2023/05/04 02:00:10;;;;;;;0.40;0.40;;;;;;;9.89;71.93;97298.91;29396;229;63008;-59
2023/05/04 02:00:42;;;;;;;0.50;0.50;;;;;;;9.89;71.77;97293.47;29396;197;63005;-59
2023/05/04 02:01:13;;;;;;;0.50;0.50;;;;;;;9.87;72.81;97295.66;29396;222;63009;-59
2023/05/04 02:01:45;;;;;;;0.50;0.50;;;;;;;9.84;72.94;97293.50;29396;278;63005;-60
2023/05/04 02:02:19;;;;;;;0.50;0.50;;;;;;;9.83;73.34;97300.00;29396;206;63009;-59
2023/05/04 02:02:50;;;;;;;0.50;0.50;;;;;;;9.81;72.78;97302.19;29396;241;63005;-60
2023/05/04 02:03:22;;;;;;;0.50;0.50;;;;;;;9.82;72.30;97292.97;29395;273;64013;-59
2023/05/04 02:03:53;;;;;;;0.50;0.50;;;;;;;9.82;72.41;97298.38;29396;267;63005;-59
2023/05/04 02:04:25;;;;;;;0.50;0.50;;;;;;;9.82;73.34;97298.38;29396;202;63009;-59
2023/05/04 02:04:56;;;;;;;0.50;0.50;;;;;;;9.81;73.39;97293.25;29395;211;64009;-58
2023/05/04 02:05:28;;;;;;;0.50;0.50;;;;;;;9.78;73.85;97294.59;29396;198;63009;-59
2023/05/04 02:05:59;;;;;;;0.50;0.50;;;;;;;9.76;73.23;97296.78;29396;278;63004;-59
2023/05/04 02:06:30;;;;;;;0.50;0.50;;;;;;;9.75;73.21;97298.69;29396;231;63009;-60
2023/05/04 02:07:01;;;;;;;0.43;0.43;;;;;;;9.76;73.92;97302.19;29396;218;63004;-59
2023/05/04 02:07:33;;;;;;;0.50;0.50;;;;;;;9.73;74.32;97302.75;29397;237;63008;-59
2023/05/04 02:08:05;;;;;;;0.50;0.50;;;;;;;9.70;74.19;97295.22;29397;200;63005;-60
2023/05/04 02:08:36;;;;;;;0.50;0.50;;;;;;;9.70;73.44;97295.22;29397;224;63022;-59
2023/05/04 02:09:08;;;;;;;0.50;0.50;;;;;;;9.70;73.23;97297.91;29397;225;63005;-60
2023/05/04 02:09:42;;;;;;;0.50;0.50;;;;;;;9.70;73.75;97289.78;29396;224;64009;-60
2023/05/04 02:10:14;;;;;;;0.50;0.50;;;;;;;9.69;73.29;97293.59;29394;226;64009;-59
2023/05/04 02:10:48;;;;;;;0.50;0.50;;;;;;;9.69;73.25;97294.41;29397;202;63009;-59
2023/05/04 02:11:19;;;;;;;0.50;0.50;;;;;;;9.69;73.46;97293.59;29397;262;63005;-59
2023/05/04 02:11:54;;;;;;;0.50;0.50;;;;;;;9.69;73.61;97288.16;29395;213;63009;-56
2023/05/04 02:12:25;;;;;;;0.50;0.50;;;;;;;9.67;74.01;97293.03;29394;257;64009;-60
2023/05/04 02:12:57;;;;;;;0.50;0.50;;;;;;;9.63;74.25;97294.69;29395;257;63009;-59
2023/05/04 02:13:28;;;;;;;0.50;0.50;;;;;;;9.62;73.96;97293.06;29395;274;63004;-60
2023/05/04 02:14:00;;;;;;;0.50;0.50;;;;;;;9.60;74.22;97285.22;29395;220;63009;-59
2023/05/04 02:14:34;;;;;;;0.50;0.50;;;;;;;9.59;73.92;97289.00;29395;241;63004;-60
2023/05/04 02:15:08;;;;;;;0.50;0.50;;;;;;;9.59;74.16;97288.19;29395;447;63008;-59
2023/05/04 02:15:40;;;;;;;0.50;0.50;;;;;;;9.58;75.00;97297.41;29395;237;63005;-60
2023/05/04 02:16:11;;;;;;;0.50;0.50;;;;;;;9.56;74.52;97288.75;29395;245;63009;-60
2023/05/04 02:16:42;;;;;;;0.50;0.50;;;;;;;9.55;74.56;97292.53;29395;207;63005;-59
2023/05/04 02:17:14;;;;;;;0.50;0.50;;;;;;;9.55;74.14;97292.53;29395;214;63009;-59
2023/05/04 02:17:45;;;;;;;0.50;0.50;;;;;;;9.56;74.30;97288.75;29393;212;64009;-60
2023/05/04 02:18:16;;;;;;;0.50;0.50;;;;;;;9.55;74.23;97292.53;29395;209;63009;-60
2023/05/04 02:18:47;;;;;;;0.50;0.50;;;;;;;9.53;74.18;97290.09;29395;252;63005;-59
2023/05/04 02:19:18;;;;;;;0.50;0.50;;;;;;;9.53;74.73;97290.09;29395;253;63009;-59
2023/05/04 02:19:50;;;;;;;0.50;0.50;;;;;;;9.51;74.81;97291.47;29393;213;64009;-60
2023/05/04 02:20:21;;;;;;;0.50;0.50;;;;;;;9.51;74.48;97291.47;29395;246;63009;-59
2023/05/04 02:20:52;;;;;;;0.50;0.50;;;;;;;9.50;74.22;97287.94;29395;219;63004;-58
2023/05/04 02:21:24;;;;;;;0.50;0.50;;;;;;;9.51;74.31;97286.06;29395;206;63009;-60
2023/05/04 02:21:55;;;;;;;0.50;0.50;;;;;;;9.51;74.13;97288.75;29395;228;63000;-59
2023/05/04 02:22:26;;;;;;;0.50;0.50;;;;;;;9.51;74.23;97283.34;29395;262;63008;-59
2023/05/04 02:22:57;;;;;;;0.50;0.50;;;;;;;9.52;74.44;97287.69;29395;242;63005;-60
2023/05/04 02:23:28;;;;;;;0.50;0.50;;;;;;;9.53;73.83;97283.88;29395;268;63009;-60
2023/05/04 02:24:00;;;;;;;0.50;0.50;;;;;;;9.54;74.05;97285.50;29395;273;63005;-57
2023/05/04 02:24:31;;;;;;;0.50;0.50;;;;;;;9.54;74.46;97285.50;29395;259;63005;-60
2023/05/04 02:25:04;;;;;;;0.50;0.50;;;;;;;9.53;73.85;97283.88;29393;203;64009;-60
2023/05/04 02:25:40;;;;;;;0.50;0.50;;;;;;;9.53;73.70;97279.28;29395;264;63009;-59
2023/05/04 02:26:11;;;;;;;0.50;0.50;;;;;;;9.55;73.51;97281.72;29395;215;63017;-59
2023/05/04 02:26:43;;;;;;;0.50;0.50;;;;;;;9.56;73.33;97277.91;29395;262;63009;-59
2023/05/04 02:27:15;;;;;;;0.50;0.50;;;;;;;9.57;73.15;97284.94;29393;229;64009;-59
2023/05/04 02:27:46;;;;;;;0.50;0.50;;;;;;;9.58;73.00;97281.97;29395;235;63009;-61
2023/05/04 02:28:19;;;;;;;0.40;0.40;;;;;;;9.60;72.64;97278.97;29395;208;63004;-60
2023/05/04 02:28:51;;;;;;;0.50;0.50;;;;;;;9.62;72.69;97276.81;29395;239;63009;-60
2023/05/04 02:29:22;;;;;;;0.50;0.50;;;;;;;9.62;72.26;97280.31;29395;216;63004;-59
2023/05/04 02:29:53;;;;;;;0.50;0.50;;;;;;;9.64;72.51;97286.28;29395;202;63008;-59
2023/05/04 02:30:24;;;;;;;0.50;0.50;;;;;;;9.66;72.48;97277.88;29395;207;63004;-61
2023/05/04 02:30:55;;;;;;;0.50;0.50;;;;;;;9.67;72.29;97279.50;29395;214;63009;-60
2023/05/04 02:31:26;;;;;;;0.50;0.50;;;;;;;9.68;72.29;97281.13;29395;226;63005;-60
2023/05/04 02:31:58;;;;;;;0.45;0.45;;;;;;;9.68;72.07;97281.13;29395;312;63009;-58
2023/05/04 02:32:32;;;;;;;0.50;0.50;;;;;;;9.69;72.02;97277.31;29393;219;64009;-59
2023/05/04 02:33:03;;;;;;;0.50;0.50;;;;;;;9.69;71.94;97280.03;29393;210;64013;-60
2023/05/04 02:33:36;;;;;;;0.50;0.50;;;;;;;9.68;72.14;97278.41;29395;209;63005;-59
2023/05/04 02:34:07;;;;;;;0.50;0.50;;;;;;;9.68;72.18;97281.13;29395;208;63009;-58
2023/05/04 02:34:38;;;;;;;0.50;0.50;;;;;;;9.66;72.39;97275.97;29395;214;63013;-58
2023/05/04 02:35:10;;;;;;;0.50;0.50;;;;;;;9.64;72.08;97278.16;29395;206;63022;-58
2023/05/04 02:35:41;;;;;;;0.50;0.50;;;;;;;9.62;72.42;97274.09;29395;204;63004;-58
2023/05/04 02:36:12;;;;;;;0.50;0.50;;;;;;;9.62;72.25;97274.09;29395;197;63016;-58
2023/05/04 02:36:44;;;;;;;0.77;0.77;;;;;;;9.62;71.99;97277.63;29395;223;63004;-58
2023/05/04 02:37:15;;;;;;;0.50;0.50;;;;;;;9.62;71.79;97271.38;29395;223;63008;-57
2023/05/04 02:37:46;;;;;;;0.50;0.50;;;;;;;9.62;72.24;97276.81;29395;206;63004;-59
2023/05/04 02:38:17;;;;;;;0.45;0.45;;;;;;;9.62;73.10;97276.81;29393;205;64014;-60